Hlavní strana
METAR-TAF:

METAR-TAF

Letiště :

Ängelholm–Helsingborg

Helsingborg, Švédsko

zeměpisná šířka: 56-17-46N, zeměpisná délka: 012-50-50E, výška: 21 m

Aktuální stav počasí

Zpráva byla vytvořena před 15 minutami, v 20:50 UTC
Jihovýchodní vítr 6 kt
Teplota 4°C
Vlhkost vzduchu 100%
Tlak 1003 hPa
Viditelnost: 5000 m
Skoro jasno ve výšce 500 ft
Oblačno až skoro zataženo ve výšce 1500 ft
Zataženo ve výšce 2400 ft
slabý déšť

METAR: ESTA 122050Z 14006KT 5000 -RA FEW005 BKN015 OVC024 04/04 Q1003

Čas: 22:05 (21:05 UTC)

Předpověď počasí

Zpráva byla vytvořena před 58 minutami, v 20:07 UTC
Předpověď platná od 12 v 21 UTC do 12 v 23 UTC
Jihojihovýchodní vítr 10 kt
Viditelnost 10 km a více
Polojasno ve výšce 2000 ft
Dočasný
od 12 v 21 UTC do 12 v 22 UTC
Polojasno ve výšce 2000 ft, Vertikální cumulus.

TAF: ESTA 122007Z 1221/1223 16010KT 9999 SCT020 TEMPO 1221/1222 SCT020TCU

Stav a předpovědi počasí z více než 4 000 letišť (zprávy METAR a TAF).

Červené a žluté tečky na mapě představují dostupné meteorologické stanice.

Když kurzor umístíte na tečku, zobrazí se název stanice.

Pak kliknutím zobrazíte stav a předpověď počasí.

Chcete-li změnit mapu, kliknutím na zelené tlačítko se znaménkem +mapu přiblížíte, kliknutím na zelené tlačítko se znaménkem – mapu oddálíte a kliknutím na zelené šipky přejdete na sousední mapy.


METAR-TAF: